Impacts TAF Board
For situational awareness. Not to be used for flight planning purposes.
IDs:

KBHM - Birmingham Intl, AL, US

Issued at 2341 UTC 05 Dec 2020
Updated at 0050 UTC 06 Dec 2020
Potential Impact None Slight Moderate High
Time2353Z 06/01Z 06/02Z 06/03Z 06/04Z 06/05Z 06/06Z 06/07Z 06/08Z 06/09Z 06/10Z 06/11Z 06/12Z 06/13Z>>
Type OBS PRVL PRVL PRVL PRVL PRVL PRVL PRVL PRVL PRVL PRVL
  [TEMP]  
PRVL
  [TEMP]  
PRVL
  [TEMP]  
PRVL
  [TEMP]  
VIS 10 >6 >6 >6 >6 >6 >6 >6 >6 >6 >6
  [4]  
>6
  [4]  
>6
  [4]  
>6
  [4]  
CIG -- -- -- -- -- -- -- -- -- -- --
  [--]  
--
  [--]  
--
  [--]  
--
  [--]  
Cover CLR FEW FEW FEW FEW FEW FEW FEW FEW FEW FEW
  [FEW]  
FEW
  [FEW]  
FEW
  [FEW]  
FEW
  [FEW]  
FltCat VFR VFR VFR VFR VFR VFR VFR VFR VFR VFR VFR
  [MVFR]  
VFR
  [MVFR]  
VFR
  [MVFR]  
VFR
  [MVFR]  
WX -- -- -- -- -- -- -- -- -- -- --
  [BR]  
--
  [BR]  
--
  [BR]  
--
  [BR]  
WDir VRB VRB VRB VRB VRB VRB VRB VRB VRB VRB VRB
[VRB]
VRB
[VRB]
VRB
[VRB]
VRB
[VRB]
WSpd 0 0 0 0 0 0 0 0 0 0 0
  [0]  
0
  [0]  
0
  [0]  
0
  [0]  
WGst -- -- -- -- -- -- -- -- -- -- --
  [--]  
--
  [--]  
--
  [--]  
--
  [--]  
Raw TAF
KBHM 052341Z 0600/0624 00000KT P6SM FEW250
  TEMPO 0610/0614 4SM BR
  FM061500 23005KT P6SM BKN150


Raw METAR
KBHM 052353Z 00000KT 10SM CLR 08/03 A3012 RMK AO2 SLP202 T00780033 10150 20078 51004
KBHM 052253Z 00000KT 10SM SCT250 11/03 A3012 RMK AO2 SLP199 T01110033
KBHM 052153Z 00000KT 10SM SCT250 13/03 A3012 RMK AO2 SLP200 T01330028

METAR Board
Radar Display
Forecast Discussion
For situational awareness. Not to be used for flight planning purposes.